createdAt,value
2022-10-05T00:00:48.310Z,101147.91
2022-10-05T00:03:16.032Z,101142.56
2022-10-05T00:05:45.882Z,101147.75
2022-10-05T00:08:34.370Z,101135.72
2022-10-05T00:11:02.529Z,101133.50
2022-10-05T00:13:31.522Z,101129.47
2022-10-05T00:16:20.769Z,101136.13
2022-10-05T00:18:50.752Z,101139.16
2022-10-05T00:21:25.470Z,101148.00
2022-10-05T00:24:20.280Z,101136.19
2022-10-05T00:26:52.726Z,101131.19
2022-10-05T00:29:25.203Z,101122.19
2022-10-05T00:31:53.101Z,101117.69
2022-10-05T00:34:20.830Z,101128.03
2022-10-05T00:36:49.044Z,101138.03
2022-10-05T00:39:18.421Z,101125.34
2022-10-05T00:41:55.101Z,101124.34
2022-10-05T00:44:34.171Z,101129.66
2022-10-05T00:47:11.111Z,101128.38
2022-10-05T00:50:04.257Z,101140.00
2022-10-05T00:52:51.375Z,101142.16
2022-10-05T00:55:51.663Z,101145.63
2022-10-05T00:58:28.912Z,101146.00
2022-10-05T01:01:17.626Z,101134.59
2022-10-05T01:03:54.517Z,101143.09
2022-10-05T01:07:00.934Z,101134.19
2022-10-05T01:09:53.713Z,101131.81
2022-10-05T01:12:30.751Z,101139.97
2022-10-05T01:15:07.718Z,101141.63
2022-10-05T01:17:49.732Z,101138.13
2022-10-05T01:20:17.386Z,101135.25
2022-10-05T01:23:15.764Z,101135.34
2022-10-05T01:26:04.765Z,101138.88
2022-10-05T01:28:38.327Z,101136.03
2022-10-05T01:31:35.408Z,101131.81
2022-10-05T01:34:13.386Z,101137.63
2022-10-05T01:36:52.286Z,101129.59
2022-10-05T01:39:57.137Z,101138.94
2022-10-05T01:42:30.901Z,101127.41
2022-10-05T01:45:19.977Z,101126.41
2022-10-05T01:47:53.123Z,101122.72
2022-10-05T01:51:03.874Z,101132.56
2022-10-05T01:53:46.763Z,101139.09
2022-10-05T01:56:26.515Z,101142.97
2022-10-05T01:58:56.979Z,101154.66
2022-10-05T02:01:37.102Z,101141.31
2022-10-05T02:04:35.601Z,101149.03
2022-10-05T02:07:10.775Z,101157.03
2022-10-05T02:09:55.545Z,101147.84
2022-10-05T02:12:28.500Z,101141.00
2022-10-05T02:15:03.265Z,101134.84
2022-10-05T02:17:59.303Z,101124.50
2022-10-05T02:20:32.586Z,101123.22
2022-10-05T02:23:05.268Z,101110.50
2022-10-05T02:25:39.543Z,101105.00
2022-10-05T02:28:15.565Z,101098.53
2022-10-05T02:30:50.590Z,101074.84
2022-10-05T02:33:33.266Z,101075.38
2022-10-05T02:36:17.328Z,101086.16
2022-10-05T02:39:02.670Z,101101.88
2022-10-05T02:41:42.047Z,101101.88
2022-10-05T02:44:55.338Z,101090.53
2022-10-05T02:47:42.159Z,101098.72
2022-10-05T02:50:39.521Z,101084.25
2022-10-05T02:53:36.009Z,101089.44
2022-10-05T02:56:15.311Z,101105.53
2022-10-05T02:59:28.251Z,101104.19
2022-10-05T03:02:05.141Z,101093.72
2022-10-05T03:04:45.347Z,101100.41
2022-10-05T03:07:31.846Z,101115.44
2022-10-05T03:10:12.451Z,101129.47
2022-10-05T03:13:10.871Z,101123.44
2022-10-05T03:16:06.285Z,101124.94
2022-10-05T03:18:59.787Z,101126.59
2022-10-05T03:21:52.069Z,101124.59
2022-10-05T03:24:38.393Z,101142.94
2022-10-05T03:27:14.779Z,101135.03
2022-10-05T03:29:42.592Z,101130.72
2022-10-05T03:32:27.663Z,101134.19
2022-10-05T03:35:33.032Z,101127.66
2022-10-05T03:38:21.037Z,101123.84
2022-10-05T03:40:56.063Z,101128.50
2022-10-05T03:43:57.556Z,101132.16
2022-10-05T03:46:31.690Z,101122.00
2022-10-05T03:49:14.869Z,101104.34
2022-10-05T03:51:47.235Z,101101.19
2022-10-05T03:54:25.030Z,101106.34
2022-10-05T03:56:56.271Z,101113.88
2022-10-05T03:59:42.325Z,101117.53
2022-10-05T04:02:24.495Z,101107.72
2022-10-05T04:04:59.543Z,101102.09
2022-10-05T04:07:35.813Z,101102.59
2022-10-05T04:10:10.720Z,101099.75
2022-10-05T04:12:46.327Z,101104.91
2022-10-05T04:15:54.702Z,101104.56
2022-10-05T04:18:29.076Z,101094.06
2022-10-05T04:21:08.476Z,101101.88
2022-10-05T04:23:43.136Z,101100.25
2022-10-05T04:26:25.185Z,101096.06
2022-10-05T04:29:15.844Z,101103.25
2022-10-05T04:31:47.458Z,101107.31
2022-10-05T04:34:34.146Z,101109.66
2022-10-05T04:37:08.148Z,101107.19
2022-10-05T04:39:36.009Z,101108.50
2022-10-05T04:42:12.328Z,101109.53
2022-10-05T04:44:59.070Z,101106.38
2022-10-05T04:47:56.139Z,101109.91
2022-10-05T04:50:46.287Z,101109.41
2022-10-05T04:53:22.454Z,101104.44
2022-10-05T04:56:09.152Z,101107.41
2022-10-05T04:59:04.049Z,101111.06
2022-10-05T05:01:48.270Z,101117.44
2022-10-05T05:04:52.050Z,101119.22
2022-10-05T05:07:42.315Z,101124.03
2022-10-05T05:10:43.919Z,101123.69
2022-10-05T05:13:30.238Z,101129.53
2022-10-05T05:16:19.266Z,101126.00
2022-10-05T05:18:54.492Z,101123.13
2022-10-05T05:22:00.368Z,101125.97
2022-10-05T05:24:46.058Z,101132.41
2022-10-05T05:27:32.423Z,101138.88
2022-10-05T05:30:17.076Z,101138.69
2022-10-05T05:32:53.164Z,101131.16
2022-10-05T05:35:45.639Z,101134.81
2022-10-05T05:38:27.665Z,101133.59
2022-10-05T05:41:12.790Z,101124.41
2022-10-05T05:44:13.325Z,101109.22
2022-10-05T05:47:03.415Z,101110.84
2022-10-05T05:50:01.785Z,101126.06
2022-10-05T05:52:47.273Z,101134.38
2022-10-05T05:55:30.212Z,101129.50
2022-10-05T05:58:17.714Z,101141.50
2022-10-05T06:00:59.064Z,101126.31
2022-10-05T06:03:40.140Z,101127.78
2022-10-05T06:06:14.234Z,101133.97
2022-10-05T06:08:47.857Z,101133.72
2022-10-05T06:11:32.078Z,101138.44
2022-10-05T06:14:05.439Z,101136.00
2022-10-05T06:17:15.806Z,101136.31
2022-10-05T06:19:46.256Z,101133.34
2022-10-05T06:22:29.244Z,101125.69
2022-10-05T06:25:12.008Z,101129.06
2022-10-05T06:28:09.501Z,101125.03
2022-10-05T06:30:57.253Z,101114.88
2022-10-05T06:33:33.972Z,101126.03
2022-10-05T06:36:18.266Z,101128.28
2022-10-05T06:39:07.171Z,101129.56
2022-10-05T06:42:03.765Z,101125.16
2022-10-05T06:45:08.194Z,101120.66
2022-10-05T06:48:12.034Z,101141.66
2022-10-05T06:51:17.078Z,101139.56
2022-10-05T06:54:19.738Z,101154.53
2022-10-05T06:57:16.918Z,101148.66
2022-10-05T06:59:57.275Z,101148.56
2022-10-05T07:02:54.501Z,101136.19
2022-10-05T07:05:52.087Z,101136.09
2022-10-05T07:08:37.306Z,101140.25
2022-10-05T07:11:17.777Z,101142.66
2022-10-05T07:13:57.658Z,101141.75
2022-10-05T07:16:53.036Z,101131.22
2022-10-05T07:20:04.019Z,101138.78
2022-10-05T07:22:50.122Z,101131.28
2022-10-05T07:25:27.882Z,101128.09
2022-10-05T07:28:34.765Z,101125.69
2022-10-05T07:31:05.674Z,101127.91
2022-10-05T07:33:38.312Z,101127.31
2022-10-05T07:37:10.224Z,101134.06
2022-10-05T07:39:59.498Z,101127.41
2022-10-05T07:42:46.061Z,101120.25
2022-10-05T07:45:33.751Z,101124.25
2022-10-05T07:48:23.480Z,101122.09
2022-10-05T07:51:14.727Z,101113.81
2022-10-05T07:54:06.678Z,101111.75
2022-10-05T07:56:41.705Z,101110.31
2022-10-05T07:59:36.481Z,101120.38
2022-10-05T08:02:34.197Z,101110.59
2022-10-05T08:05:17.386Z,101112.53
2022-10-05T08:07:48.072Z,101118.00
2022-10-05T08:10:30.287Z,101119.69
2022-10-05T08:13:25.706Z,101116.09
2022-10-05T08:15:57.889Z,101109.47
2022-10-05T08:18:46.297Z,101107.97
2022-10-05T08:21:16.366Z,101099.50
2022-10-05T08:24:25.968Z,101100.63
2022-10-05T08:42:21.479Z,101104.56
2022-10-05T09:04:11.291Z,101086.59
2022-10-05T09:07:08.183Z,101080.84
2022-10-05T09:10:01.397Z,101077.75
2022-10-05T09:12:54.711Z,101075.88
2022-10-05T09:15:56.449Z,101069.47
2022-10-05T09:18:29.883Z,101065.50
2022-10-05T09:21:25.109Z,101050.63
2022-10-05T09:24:13.221Z,101045.81
2022-10-05T09:26:42.747Z,101047.06
2022-10-05T09:29:53.418Z,101061.31
2022-10-05T09:32:40.097Z,101063.53
2022-10-05T09:35:26.450Z,101056.53
2022-10-05T09:38:08.713Z,101054.47
2022-10-05T09:40:54.266Z,101049.28
2022-10-05T09:43:45.881Z,101039.34
2022-10-05T09:46:51.926Z,101044.31
2022-10-05T09:49:25.512Z,101047.44
2022-10-05T09:52:32.061Z,101054.66
2022-10-05T09:55:20.552Z,101049.69
2022-10-05T09:57:54.439Z,101052.16
2022-10-05T10:00:38.752Z,101048.81
2022-10-05T10:03:43.220Z,101059.34
2022-10-05T10:40:20.530Z,101058.72
2022-10-05T10:42:54.133Z,101049.28
2022-10-05T10:45:45.635Z,101030.22
2022-10-05T10:48:19.126Z,101028.53
2022-10-05T10:51:03.773Z,101015.94
2022-10-05T10:53:47.661Z,101021.78
2022-10-05T10:56:29.162Z,101022.31
2022-10-05T10:59:17.935Z,101013.44
2022-10-05T11:02:15.851Z,101006.50
2022-10-05T11:04:46.579Z,101009.22
2022-10-05T11:07:39.244Z,100999.63
2022-10-05T11:10:26.182Z,101002.22
2022-10-05T11:13:08.981Z,101000.38
2022-10-05T11:15:58.409Z,101004.47
2022-10-05T11:19:02.463Z,101004.25
2022-10-05T11:21:38.374Z,101007.91
2022-10-05T11:24:38.910Z,101003.00
2022-10-05T11:27:51.697Z,101001.56
2022-10-05T11:30:31.603Z,101002.84
2022-10-05T11:33:12.044Z,100995.44
2022-10-05T11:36:09.697Z,101001.31
2022-10-05T11:38:55.830Z,100992.63
2022-10-05T11:41:56.014Z,100994.56
2022-10-05T11:44:46.143Z,101001.78
2022-10-05T11:47:39.424Z,100985.13
2022-10-05T11:50:47.552Z,100985.69
2022-10-05T11:53:25.547Z,100988.03
2022-10-05T11:56:09.481Z,100979.81
2022-10-05T11:58:57.503Z,100990.75
2022-10-05T12:02:04.439Z,100988.41
2022-10-05T12:04:56.896Z,100980.34
2022-10-05T12:07:42.672Z,100985.88
2022-10-05T12:10:43.206Z,100985.75
2022-10-05T12:13:21.836Z,100998.78
2022-10-05T12:15:57.690Z,100989.63
2022-10-05T12:18:31.685Z,100995.25
2022-10-05T12:21:22.973Z,100993.50
2022-10-05T12:23:58.778Z,100984.22
2022-10-05T12:26:28.398Z,100979.88
2022-10-05T12:29:08.991Z,100984.34
2022-10-05T12:31:50.636Z,100979.19
2022-10-05T12:34:27.629Z,100979.19
2022-10-05T12:37:17.519Z,100987.25
2022-10-05T12:39:50.803Z,100984.66
2022-10-05T12:42:30.853Z,100991.13
2022-10-05T12:45:14.630Z,100987.88
2022-10-05T12:47:54.062Z,100986.16
2022-10-05T12:50:37.290Z,100973.19
2022-10-05T12:53:23.445Z,100976.91
2022-10-05T12:55:57.240Z,100975.59
2022-10-05T12:58:48.741Z,100971.25
2022-10-05T13:01:35.254Z,100967.56
2022-10-05T13:04:34.203Z,100978.03
2022-10-05T13:07:28.758Z,100981.78
2022-10-05T13:10:12.146Z,100974.97
2022-10-05T13:12:39.913Z,100993.19
2022-10-05T13:15:07.989Z,100983.31
2022-10-05T13:17:51.136Z,100983.78
2022-10-05T13:21:01.581Z,100977.53
2022-10-05T13:23:43.708Z,100978.94
2022-10-05T13:26:17.927Z,100981.78
2022-10-05T13:28:53.444Z,100979.41
2022-10-05T13:31:40.858Z,100977.84
2022-10-05T13:34:30.355Z,100972.91
2022-10-05T13:37:34.102Z,100969.63
2022-10-05T13:40:12.828Z,100974.50
2022-10-05T13:42:40.681Z,100968.97
2022-10-05T13:45:21.620Z,100966.88
2022-10-05T13:47:55.321Z,100980.88
2022-10-05T13:50:43.240Z,100968.97
2022-10-05T13:53:15.602Z,100975.56
2022-10-05T13:56:00.804Z,100972.25
2022-10-05T13:58:48.599Z,100972.72
2022-10-05T14:01:36.232Z,100968.53
2022-10-05T14:04:27.460Z,100953.31
2022-10-05T14:06:55.262Z,100950.75
2022-10-05T14:09:34.151Z,100951.28
2022-10-05T14:12:04.868Z,100950.53
2022-10-05T14:14:42.515Z,100944.81
2022-10-05T14:17:15.868Z,100944.88
2022-10-05T14:19:46.686Z,100950.66
2022-10-05T14:22:25.328Z,100945.09
2022-10-05T14:24:55.567Z,100946.78
2022-10-05T14:27:27.117Z,100946.78
2022-10-05T14:30:01.648Z,100937.63
2022-10-05T14:32:32.845Z,100942.44
2022-10-05T14:35:05.371Z,100943.16
2022-10-05T14:37:44.593Z,100943.25
2022-10-05T14:40:26.172Z,100939.16
2022-10-05T14:42:54.529Z,100940.06
2022-10-05T14:45:30.150Z,100938.88
2022-10-05T14:48:01.919Z,100950.66
2022-10-05T14:50:31.586Z,100936.63
2022-10-05T14:53:11.120Z,100942.66
2022-10-05T14:55:45.030Z,100937.09
2022-10-05T14:58:28.719Z,100939.38
2022-10-05T15:01:07.226Z,100937.38
2022-10-05T15:04:02.361Z,100928.66
2022-10-05T15:06:33.150Z,100932.06
2022-10-05T15:09:33.763Z,100929.97
2022-10-05T15:12:03.376Z,100916.50
2022-10-05T15:14:40.422Z,100917.56
2022-10-05T15:17:20.800Z,100921.09
2022-10-05T15:20:05.334Z,100923.38
2022-10-05T15:22:42.829Z,100925.47
2022-10-05T15:25:33.000Z,100931.28
2022-10-05T15:28:24.277Z,100932.75
2022-10-05T15:31:05.809Z,100924.09
2022-10-05T15:34:08.825Z,100913.91
2022-10-05T15:37:03.382Z,100909.63
2022-10-05T15:39:46.615Z,100909.38
2022-10-05T15:42:18.190Z,100914.38
2022-10-05T15:45:07.124Z,100904.66
2022-10-05T15:48:10.339Z,100907.56
2022-10-05T15:50:44.080Z,100912.31
2022-10-05T15:53:22.594Z,100923.94
2022-10-05T15:56:22.434Z,100928.06
2022-10-05T15:58:55.907Z,100917.75
2022-10-05T16:01:32.250Z,100905.34
2022-10-05T16:04:17.824Z,100914.84
2022-10-05T16:07:16.160Z,100915.72
2022-10-05T16:09:53.621Z,100909.31
2022-10-05T16:12:35.469Z,100913.09
2022-10-05T16:15:26.665Z,100904.63
2022-10-05T16:18:00.003Z,100895.13
2022-10-05T16:20:42.878Z,100896.78
2022-10-05T16:23:28.527Z,100880.63
2022-10-05T16:25:57.723Z,100864.94
2022-10-05T16:28:58.859Z,100892.66
2022-10-05T16:31:32.362Z,100883.63
2022-10-05T16:34:23.487Z,100879.72
2022-10-05T16:37:37.939Z,100884.84
2022-10-05T16:40:19.416Z,100866.66
2022-10-05T16:42:57.592Z,100870.81
2022-10-05T16:45:44.706Z,100871.84
2022-10-05T16:48:23.686Z,100867.72
2022-10-05T16:50:55.294Z,100876.22
2022-10-05T16:53:34.851Z,100873.94
2022-10-05T16:56:17.542Z,100871.88
2022-10-05T16:58:57.671Z,100870.84
2022-10-05T17:01:50.151Z,100877.47
2022-10-05T17:04:36.196Z,100875.63
2022-10-05T17:07:10.856Z,100892.56
2022-10-05T17:09:43.139Z,100886.13
2022-10-05T17:12:52.999Z,100880.56
2022-10-05T17:15:32.306Z,100882.84
2022-10-05T17:18:38.424Z,100884.91
2022-10-05T17:21:15.880Z,100877.88
2022-10-05T17:23:56.344Z,100884.91
2022-10-05T17:26:45.710Z,100881.84
2022-10-05T17:29:16.041Z,100883.69
2022-10-05T17:32:08.552Z,100880.16
2022-10-05T17:35:02.935Z,100871.88
2022-10-05T17:37:35.876Z,100869.84
2022-10-05T17:40:41.491Z,100863.41
2022-10-05T17:43:15.473Z,100869.03
2022-10-05T17:45:43.295Z,100862.81
2022-10-05T17:48:42.583Z,100861.19
2022-10-05T17:51:47.367Z,100870.88
2022-10-05T17:54:44.591Z,100869.44
2022-10-05T17:57:18.339Z,100861.41
2022-10-05T17:59:57.980Z,100862.84
2022-10-05T18:02:38.684Z,100862.63
2022-10-05T18:05:12.332Z,100856.44
2022-10-05T18:07:42.427Z,100859.75
2022-10-05T18:10:11.710Z,100870.06
2022-10-05T18:12:42.018Z,100865.31
2022-10-05T18:15:10.564Z,100862.84
2022-10-05T18:18:36.188Z,100865.97
2022-10-05T18:21:15.477Z,100868.22
2022-10-05T18:24:00.402Z,100864.91
2022-10-05T18:27:05.992Z,100865.09
2022-10-05T18:30:03.371Z,100866.34
2022-10-05T18:32:59.395Z,100866.78
2022-10-05T18:35:45.983Z,100869.03
2022-10-05T18:38:33.241Z,100859.94
2022-10-05T18:41:09.375Z,100861.19
2022-10-05T18:43:47.778Z,100862.00
2022-10-05T18:46:39.755Z,100861.00
2022-10-05T18:49:43.574Z,100870.06
2022-10-05T18:52:53.709Z,100869.06
2022-10-05T18:55:43.983Z,100850.88
2022-10-05T18:58:37.794Z,100868.84
2022-10-05T19:01:36.685Z,100869.25
2022-10-05T19:04:14.133Z,100857.50
2022-10-05T19:06:59.868Z,100865.72
2022-10-05T19:09:36.125Z,100851.50
2022-10-05T19:12:12.513Z,100844.06
2022-10-05T19:15:00.031Z,100848.00
2022-10-05T19:17:46.438Z,100853.78
2022-10-05T19:20:34.122Z,100852.91
2022-10-05T19:23:22.832Z,100849.22
2022-10-05T19:26:19.988Z,100846.97
2022-10-05T19:29:13.871Z,100846.72
2022-10-05T19:31:50.348Z,100845.09
2022-10-05T19:34:57.373Z,100853.34
2022-10-05T19:38:15.206Z,100855.00
2022-10-05T19:40:53.685Z,100858.94
2022-10-05T19:43:53.708Z,100851.47
2022-10-05T19:46:33.298Z,100860.34
2022-10-05T19:49:01.158Z,100856.22
2022-10-05T19:51:31.627Z,100855.22
2022-10-05T19:54:13.878Z,100859.53
2022-10-05T19:56:50.607Z,100851.28
2022-10-05T19:59:25.377Z,100858.25
2022-10-05T20:01:59.242Z,100862.63
2022-10-05T20:04:36.099Z,100864.91
2022-10-05T20:07:05.161Z,100866.97
2022-10-05T20:09:59.752Z,100876.47
2022-10-05T20:12:53.391Z,100866.78
2022-10-05T20:15:49.008Z,100876.47
2022-10-05T20:18:58.420Z,100875.00
2022-10-05T20:21:40.085Z,100877.69
2022-10-05T20:24:14.193Z,100876.25
2022-10-05T20:27:09.542Z,100871.28
2022-10-05T20:29:40.167Z,100881.78
2022-10-05T20:32:13.053Z,100883.63
2022-10-05T20:34:45.940Z,100884.03
2022-10-05T20:37:16.593Z,100882.56
2022-10-05T20:39:45.746Z,100878.03
2022-10-05T20:42:14.258Z,100875.75
2022-10-05T20:44:42.680Z,100878.66
2022-10-05T20:47:37.889Z,100881.53
2022-10-05T20:50:09.193Z,100874.09
2022-10-05T20:52:38.011Z,100873.47
2022-10-05T20:55:09.138Z,100874.50
2022-10-05T20:58:24.805Z,100879.22
2022-10-05T21:01:11.350Z,100891.81
2022-10-05T21:03:39.179Z,100887.88
2022-10-05T21:06:09.219Z,100884.19
2022-10-05T21:08:37.224Z,100895.31
2022-10-05T21:11:11.619Z,100901.69
2022-10-05T21:13:44.919Z,100908.28
2022-10-05T21:16:17.616Z,100896.72
2022-10-05T21:18:48.010Z,100903.34
2022-10-05T21:21:18.341Z,100891.75
2022-10-05T21:23:51.373Z,100898.56
2022-10-05T21:26:19.393Z,100897.75
2022-10-05T21:28:48.819Z,100898.75
2022-10-05T21:31:16.702Z,100901.63
2022-10-05T21:33:45.806Z,100900.00
2022-10-05T21:36:38.569Z,100911.31
2022-10-05T21:39:06.722Z,100911.28
2022-10-05T21:42:00.591Z,100912.50
2022-10-05T21:44:28.270Z,100913.09
2022-10-05T21:46:56.764Z,100916.16
2022-10-05T21:49:26.771Z,100912.03
2022-10-05T21:51:54.739Z,100908.91
2022-10-05T21:54:23.469Z,100911.38
2022-10-05T21:56:55.611Z,100909.94
2022-10-05T21:59:29.731Z,100908.66
2022-10-05T22:01:57.580Z,100919.16
2022-10-05T22:04:25.868Z,100915.81
2022-10-05T22:06:55.667Z,100917.47
2022-10-05T22:09:24.740Z,100901.63
2022-10-05T22:11:52.585Z,100913.13
2022-10-05T22:14:20.272Z,100904.59
2022-10-05T22:16:48.082Z,100910.97
2022-10-05T22:19:19.294Z,100905.22
2022-10-05T22:21:46.957Z,100902.69
2022-10-05T22:24:14.467Z,100903.31
2022-10-05T22:26:46.438Z,100902.09
2022-10-05T22:29:16.174Z,100905.16
2022-10-05T22:31:46.410Z,100908.84
2022-10-05T22:34:14.999Z,100905.53
2022-10-05T22:36:42.989Z,100908.22
2022-10-05T22:39:10.702Z,100901.59
2022-10-05T22:41:38.415Z,100902.63
2022-10-05T22:44:06.923Z,100899.50
2022-10-05T22:46:35.611Z,100902.78
2022-10-05T22:49:03.309Z,100908.38
2022-10-05T22:51:31.710Z,100909.38
2022-10-05T22:53:59.452Z,100908.09
2022-10-05T22:56:27.254Z,100918.00
2022-10-05T22:58:55.233Z,100912.00
2022-10-05T23:01:22.978Z,100918.78
2022-10-05T23:03:51.061Z,100913.59
2022-10-05T23:06:20.635Z,100907.81
2022-10-05T23:08:48.481Z,100925.91
2022-10-05T23:11:18.944Z,100915.41
2022-10-05T23:13:46.658Z,100912.47
2022-10-05T23:16:16.940Z,100918.22
2022-10-05T23:18:45.363Z,100921.28
2022-10-05T23:21:13.061Z,100921.66
2022-10-05T23:23:43.490Z,100925.53
2022-10-05T23:26:11.822Z,100925.28
2022-10-05T23:28:43.154Z,100930.41
2022-10-05T23:31:11.095Z,100930.41
2022-10-05T23:33:38.883Z,100931.97
2022-10-05T23:36:13.976Z,100934.22
2022-10-05T23:38:41.873Z,100928.22
2022-10-05T23:41:09.984Z,100926.56
2022-10-05T23:43:38.145Z,100926.09
2022-10-05T23:46:07.240Z,100932.09
2022-10-05T23:49:00.433Z,100928.97
2022-10-05T23:51:28.538Z,100924.19
2022-10-05T23:53:56.289Z,100925.22
2022-10-05T23:56:24.213Z,100927.06
2022-10-05T23:59:17.497Z,100931.13
